Gilman, Wisconsin
Current Conditions -  °F | °C
As of 1:35 PM on Thursday 27 Nov 2014 (Local Time) from KRCX Reporting Station
Clear Clear  
Wind Chill:   Ceiling: Unl
Heat Index: 11°   Visibility: 10mi
Dew Point: -2°   Wind: 6mph
Humidity: 57%   Direction: 270°W
Pressure: 30.38"   Gusts: NA
Location:  45.17°N, 90.81°W
Report Text: KRCX 271935Z AUTO 27005KT 10SM CLR M12/M19 A3038 RMK AO2 T11171187
Loading
Personal Weather Stations






























Interactive Weather Map New forecast layout! Learn more

10-Day Weather Forecast

Advertisements
Track Severe Weather on mobile